createdAt,value
2022-11-24T00:01:26.445Z,9.27
2022-11-24T00:04:02.727Z,9.22
2022-11-24T00:06:32.793Z,9.13
2022-11-24T00:09:00.186Z,9.23
2022-11-24T00:11:30.348Z,9.09
2022-11-24T00:13:58.258Z,9.13
2022-11-24T00:16:28.916Z,9.12
2022-11-24T00:18:58.151Z,9.18
2022-11-24T00:21:26.813Z,9.18
2022-11-24T00:23:53.940Z,9.26
2022-11-24T00:26:24.426Z,9.32
2022-11-24T00:28:53.827Z,9.27
2022-11-24T00:31:31.652Z,9.16
2022-11-24T00:34:02.097Z,9.14
2022-11-24T00:36:33.096Z,9.17
2022-11-24T00:39:03.673Z,9.15
2022-11-24T00:41:31.294Z,9.21
2022-11-24T00:43:59.027Z,9.24
2022-11-24T00:46:26.902Z,9.25
2022-11-24T00:48:54.544Z,9.25
2022-11-24T00:51:24.429Z,9.28
2022-11-24T00:53:51.324Z,9.30
2022-11-24T00:56:18.246Z,9.33
2022-11-24T00:58:45.588Z,9.30
2022-11-24T01:01:20.819Z,9.29
2022-11-24T01:03:47.975Z,9.39
2022-11-24T01:06:23.925Z,9.43
2022-11-24T01:08:51.337Z,9.42
2022-11-24T01:11:21.224Z,9.34
2022-11-24T01:13:53.525Z,9.50
2022-11-24T01:16:26.414Z,9.53
2022-11-24T01:18:54.037Z,9.53
2022-11-24T01:21:21.774Z,9.56
2022-11-24T01:23:49.085Z,9.61
2022-11-24T01:26:19.553Z,9.57
2022-11-24T01:28:47.946Z,9.52
2022-11-24T01:31:16.151Z,9.54
2022-11-24T01:33:43.138Z,9.57
2022-11-24T01:36:10.072Z,9.57
2022-11-24T01:38:36.883Z,9.49
2022-11-24T01:41:25.113Z,9.53
2022-11-24T01:43:54.409Z,9.52
2022-11-24T01:46:35.890Z,9.53
2022-11-24T01:49:08.674Z,9.55
2022-11-24T01:51:43.404Z,9.54
2022-11-24T01:54:28.501Z,9.56
2022-11-24T01:57:04.847Z,9.59
2022-11-24T01:59:31.838Z,9.53
2022-11-24T02:01:59.036Z,9.58
2022-11-24T02:04:30.649Z,9.52
2022-11-24T02:07:01.621Z,9.50
2022-11-24T02:09:40.402Z,9.52
2022-11-24T02:12:09.076Z,9.43
2022-11-24T02:14:37.991Z,9.43
2022-11-24T02:17:06.006Z,9.51
2022-11-24T02:19:53.608Z,9.44
2022-11-24T02:22:40.950Z,9.43
2022-11-24T02:25:18.384Z,9.40
2022-11-24T02:27:50.732Z,9.40
2022-11-24T02:30:20.558Z,9.33
2022-11-24T02:32:47.367Z,9.38
2022-11-24T02:35:15.400Z,9.39
2022-11-24T02:37:42.151Z,9.44
2022-11-24T02:40:09.902Z,9.52
2022-11-24T02:42:41.865Z,9.45
2022-11-24T02:45:10.174Z,9.45
2022-11-24T02:47:36.961Z,9.50
2022-11-24T02:50:04.352Z,9.47
2022-11-24T02:52:31.148Z,9.43
2022-11-24T02:54:57.914Z,9.38
2022-11-24T02:57:24.717Z,9.38
2022-11-24T02:59:51.497Z,9.35
2022-11-24T03:02:18.400Z,9.35
2022-11-24T03:04:45.194Z,9.36
2022-11-24T03:07:12.086Z,9.29
2022-11-24T03:09:38.986Z,9.25
2022-11-24T03:12:06.307Z,9.34
2022-11-24T03:14:33.382Z,9.30
2022-11-24T03:17:00.354Z,9.26
2022-11-24T03:19:27.127Z,9.29
2022-11-24T03:21:53.892Z,9.23
2022-11-24T03:24:20.798Z,9.16
2022-11-24T03:26:47.572Z,9.16
2022-11-24T03:29:14.345Z,9.14
2022-11-24T03:31:41.206Z,9.12
2022-11-24T03:34:08.099Z,9.11
2022-11-24T03:36:34.999Z,9.09
2022-11-24T03:39:02.741Z,9.02
2022-11-24T03:41:29.602Z,9.05
2022-11-24T03:43:56.396Z,9.02
2022-11-24T03:46:23.305Z,9.01
2022-11-24T03:48:50.172Z,8.98
2022-11-24T03:51:17.081Z,8.86
2022-11-24T03:53:43.887Z,8.94
2022-11-24T03:56:10.793Z,8.85
2022-11-24T03:58:37.600Z,8.92
2022-11-24T04:01:04.398Z,8.94
2022-11-24T04:03:31.205Z,8.87
2022-11-24T04:05:57.997Z,8.91
2022-11-24T04:08:24.851Z,8.89
2022-11-24T04:10:53.883Z,8.87
2022-11-24T04:13:24.540Z,8.84
2022-11-24T04:15:51.769Z,8.81
2022-11-24T04:18:19.403Z,8.81
2022-11-24T04:20:49.722Z,8.80
2022-11-24T04:23:16.610Z,8.80
2022-11-24T04:25:43.697Z,8.78
2022-11-24T04:28:10.827Z,8.77
2022-11-24T04:30:40.123Z,8.72
2022-11-24T04:33:07.121Z,8.71
2022-11-24T04:35:33.930Z,8.75
2022-11-24T04:38:04.016Z,8.70
2022-11-24T04:40:30.856Z,8.66
2022-11-24T04:42:58.232Z,8.64
2022-11-24T04:45:25.367Z,8.67
2022-11-24T04:47:52.459Z,8.58
2022-11-24T04:50:19.260Z,8.63
2022-11-24T04:52:46.044Z,8.58
2022-11-24T04:55:13.083Z,8.58
2022-11-24T04:57:40.273Z,8.58
2022-11-24T05:00:09.135Z,8.58
2022-11-24T05:02:36.628Z,8.60
2022-11-24T05:05:04.799Z,8.57
2022-11-24T05:07:31.696Z,8.56
2022-11-24T05:10:17.117Z,8.54
2022-11-24T05:12:48.535Z,8.57
2022-11-24T05:15:18.031Z,8.63
2022-11-24T05:17:44.799Z,8.57
2022-11-24T05:20:11.693Z,8.61
2022-11-24T05:22:38.598Z,8.52
2022-11-24T05:25:05.778Z,8.47
2022-11-24T05:27:32.574Z,8.47
2022-11-24T05:29:59.420Z,8.43
2022-11-24T05:32:26.187Z,8.40
2022-11-24T05:34:54.128Z,8.43
2022-11-24T05:37:21.621Z,8.39
2022-11-24T05:39:48.475Z,8.39
2022-11-24T05:42:34.034Z,8.39
2022-11-24T05:45:00.825Z,8.38
2022-11-24T05:47:27.765Z,8.38
2022-11-24T05:49:54.534Z,8.39
2022-11-24T05:52:21.303Z,8.47
2022-11-24T05:54:48.059Z,8.45
2022-11-24T05:57:16.693Z,8.34
2022-11-24T05:59:43.904Z,8.27
2022-11-24T06:02:10.834Z,8.25
2022-11-24T06:04:38.008Z,8.19
2022-11-24T06:07:08.863Z,8.20
2022-11-24T06:09:41.035Z,8.23
2022-11-24T06:12:08.955Z,8.22
2022-11-24T06:14:36.431Z,8.21
2022-11-24T06:17:04.322Z,8.21
2022-11-24T06:19:31.293Z,8.24
2022-11-24T06:21:58.139Z,8.23
2022-11-24T06:24:24.978Z,8.21
2022-11-24T06:26:51.829Z,8.26
2022-11-24T06:29:18.631Z,8.25
2022-11-24T06:31:45.544Z,8.25
2022-11-24T06:34:13.452Z,8.34
2022-11-24T06:36:40.325Z,8.34
2022-11-24T06:39:07.761Z,8.32
2022-11-24T06:41:35.076Z,8.33
2022-11-24T06:44:05.493Z,8.31
2022-11-24T06:46:32.556Z,8.28
2022-11-24T06:49:02.343Z,8.28
2022-11-24T06:51:29.262Z,8.29
2022-11-24T06:53:56.289Z,8.33
2022-11-24T06:56:23.426Z,8.32
2022-11-24T06:58:52.476Z,8.31
2022-11-24T07:01:23.296Z,8.37
2022-11-24T07:03:51.381Z,8.33
2022-11-24T07:06:19.957Z,8.34
2022-11-24T07:08:47.465Z,8.33
2022-11-24T07:11:18.027Z,8.36
2022-11-24T07:13:46.242Z,8.37
2022-11-24T07:16:24.043Z,8.39
2022-11-24T07:18:53.299Z,8.44
2022-11-24T07:21:22.141Z,8.45
2022-11-24T07:23:52.951Z,8.37
2022-11-24T07:26:20.343Z,8.43
2022-11-24T07:28:47.531Z,8.43
2022-11-24T07:31:20.882Z,8.47
2022-11-24T07:33:52.750Z,8.48
2022-11-24T07:36:20.256Z,8.49
2022-11-24T07:38:47.415Z,8.53
2022-11-24T07:41:16.112Z,8.50
2022-11-24T07:43:43.221Z,8.54
2022-11-24T07:46:13.627Z,8.59
2022-11-24T07:48:40.904Z,8.48
2022-11-24T07:51:08.272Z,8.54
2022-11-24T07:53:35.991Z,8.58
2022-11-24T07:56:06.142Z,8.54
2022-11-24T07:58:35.854Z,8.54
2022-11-24T08:01:17.133Z,8.60
2022-11-24T08:03:45.576Z,8.59
2022-11-24T08:06:37.494Z,8.50
2022-11-24T08:09:00.943Z,8.55
2022-11-24T08:11:28.551Z,8.52
2022-11-24T08:13:55.726Z,8.56
2022-11-24T08:16:22.951Z,8.60
2022-11-24T08:18:53.603Z,8.58
2022-11-24T08:21:23.302Z,8.57
2022-11-24T08:23:55.671Z,8.61
2022-11-24T08:26:24.657Z,8.63
2022-11-24T08:28:56.693Z,8.68
2022-11-24T08:31:27.386Z,8.70
2022-11-24T08:33:56.445Z,8.73
2022-11-24T08:36:23.743Z,8.69
2022-11-24T08:38:56.357Z,8.77
2022-11-24T08:41:24.315Z,8.79
2022-11-24T08:43:51.370Z,8.79
2022-11-24T08:46:19.843Z,8.82
2022-11-24T08:48:54.605Z,8.79
2022-11-24T08:51:25.788Z,8.86
2022-11-24T08:53:58.421Z,8.87
2022-11-24T08:56:28.026Z,8.90
2022-11-24T08:58:56.244Z,8.94
2022-11-24T09:01:23.743Z,8.95
2022-11-24T09:03:51.604Z,8.99
2022-11-24T09:06:25.097Z,8.99
2022-11-24T09:08:54.475Z,9.01
2022-11-24T09:11:22.196Z,9.04
2022-11-24T09:13:49.472Z,8.88
2022-11-24T09:16:20.344Z,9.05
2022-11-24T09:18:48.089Z,9.10
2022-11-24T09:21:20.828Z,9.12
2022-11-24T09:23:49.712Z,8.90
2022-11-24T09:26:20.724Z,9.15
2022-11-24T09:28:48.139Z,9.19
2022-11-24T09:31:17.555Z,9.11
2022-11-24T09:33:44.824Z,9.22
2022-11-24T09:36:11.650Z,9.21
2022-11-24T09:38:38.492Z,9.25
2022-11-24T09:41:38.372Z,9.25
2022-11-24T09:44:31.021Z,9.36
2022-11-24T09:47:45.056Z,9.38
2022-11-24T09:50:23.856Z,9.34
2022-11-24T09:53:13.465Z,9.27
2022-11-24T09:55:46.423Z,9.34
2022-11-24T09:58:50.601Z,9.37
2022-11-24T10:01:45.943Z,9.39
2022-11-24T10:04:26.828Z,9.39
2022-11-24T10:07:11.966Z,9.22
2022-11-24T10:09:53.441Z,9.46
2022-11-24T10:12:44.508Z,9.41
2022-11-24T10:15:36.034Z,9.50
2022-11-24T10:18:34.014Z,9.47
2022-11-24T10:21:46.660Z,9.54
2022-11-24T10:24:49.138Z,9.57
2022-11-24T10:27:22.120Z,9.51
2022-11-24T10:29:52.580Z,9.57
2022-11-24T10:32:35.862Z,9.56
2022-11-24T10:35:28.286Z,9.68
2022-11-24T10:38:20.945Z,9.68
2022-11-24T10:41:07.208Z,9.69
2022-11-24T10:43:34.218Z,9.68
2022-11-24T10:46:24.454Z,9.61
2022-11-24T10:48:58.355Z,9.72
2022-11-24T10:52:15.074Z,9.74
2022-11-24T10:55:14.110Z,9.89
2022-11-24T10:57:41.294Z,9.90
2022-11-24T11:00:32.919Z,10.02
2022-11-24T11:03:19.013Z,9.95
2022-11-24T11:06:12.990Z,9.91
2022-11-24T11:08:40.293Z,9.93
2022-11-24T11:11:27.826Z,10.06
2022-11-24T11:14:04.924Z,10.03
2022-11-24T11:16:50.644Z,10.07
2022-11-24T11:19:55.445Z,10.03
2022-11-24T11:22:31.829Z,10.10
2022-11-24T11:25:10.769Z,10.07
2022-11-24T11:27:39.577Z,10.17
2022-11-24T11:36:13.667Z,10.22
2022-11-24T11:38:41.657Z,10.24
2022-11-24T11:41:20.556Z,10.16
2022-11-24T11:43:57.453Z,10.26
2022-11-24T11:46:26.576Z,10.28
2022-11-24T11:48:53.601Z,10.31
2022-11-24T11:51:49.543Z,10.37
2022-11-24T11:54:32.129Z,10.45
2022-11-24T11:57:48.456Z,10.46
2022-11-24T12:00:21.898Z,10.51
2022-11-24T12:03:22.956Z,10.58
2022-11-24T12:06:34.036Z,10.52
2022-11-24T12:09:52.388Z,10.56
2022-11-24T12:13:06.272Z,10.55
2022-11-24T12:15:53.936Z,10.56
2022-11-24T12:18:59.008Z,10.57
2022-11-24T12:21:43.707Z,10.40
2022-11-24T12:24:29.477Z,10.63
2022-11-24T12:27:06.282Z,10.65
2022-11-24T12:30:05.721Z,10.67
2022-11-24T12:32:44.514Z,10.66
2022-11-24T12:35:39.005Z,10.67
2022-11-24T12:38:17.370Z,10.69
2022-11-24T12:44:30.396Z,10.73
2022-11-24T12:47:20.328Z,10.70
2022-11-24T12:50:11.772Z,10.77
2022-11-24T12:52:50.201Z,10.77
2022-11-24T12:55:24.221Z,10.80
2022-11-24T12:58:20.521Z,10.81
2022-11-24T13:01:25.417Z,10.84
2022-11-24T13:04:33.085Z,10.88
2022-11-24T13:07:11.149Z,10.88
2022-11-24T13:09:38.264Z,10.88
2022-11-24T13:12:13.622Z,10.89
2022-11-24T13:14:44.428Z,10.90
2022-11-24T13:18:02.788Z,10.89
2022-11-24T13:20:40.161Z,10.90
2022-11-24T13:23:25.243Z,10.92
2022-11-24T13:26:15.840Z,10.93
2022-11-24T13:29:09.340Z,10.94
2022-11-24T13:31:49.051Z,10.95
2022-11-24T13:34:39.134Z,10.98
2022-11-24T13:37:34.434Z,11.00
2022-11-24T13:40:22.894Z,11.02
2022-11-24T13:43:01.165Z,11.07
2022-11-24T13:45:40.703Z,11.06
2022-11-24T13:48:20.193Z,11.07
2022-11-24T13:50:50.465Z,11.09
2022-11-24T13:53:33.313Z,11.05
2022-11-24T13:56:03.022Z,11.06
2022-11-24T13:58:34.422Z,10.99
2022-11-24T14:01:23.861Z,11.07
2022-11-24T14:07:08.323Z,11.11
2022-11-24T14:09:46.069Z,11.11
2022-11-24T14:12:16.532Z,11.12
2022-11-24T14:14:45.570Z,11.11
2022-11-24T14:17:24.947Z,11.14
2022-11-24T14:19:54.737Z,11.10
2022-11-24T14:22:29.351Z,11.17
2022-11-24T14:25:01.489Z,11.19
2022-11-24T14:27:32.687Z,11.19
2022-11-24T14:30:20.099Z,11.20
2022-11-24T14:33:02.301Z,11.23
2022-11-24T14:35:34.876Z,11.30
2022-11-24T14:38:03.710Z,11.29
2022-11-24T14:40:50.714Z,11.34
2022-11-24T14:43:26.264Z,11.29
2022-11-24T14:45:59.246Z,11.41
2022-11-24T14:48:33.823Z,11.34
2022-11-24T14:51:19.277Z,11.32
2022-11-24T14:53:53.923Z,11.38
2022-11-24T14:56:28.975Z,11.38
2022-11-24T14:58:57.453Z,11.41
2022-11-24T15:01:27.013Z,11.49
2022-11-24T15:07:27.595Z,11.42
2022-11-24T15:09:58.700Z,11.38
2022-11-24T15:12:34.758Z,11.44
2022-11-24T15:15:13.975Z,11.45
2022-11-24T15:17:53.117Z,11.53
2022-11-24T15:20:36.843Z,11.45
2022-11-24T15:23:24.267Z,11.48
2022-11-24T15:26:18.328Z,11.47
2022-11-24T15:28:48.222Z,11.45
2022-11-24T15:31:15.094Z,11.42
2022-11-24T15:33:42.356Z,11.45
2022-11-24T15:36:09.304Z,11.41
2022-11-24T15:38:36.110Z,11.41
2022-11-24T15:41:16.623Z,11.39
2022-11-24T15:43:43.594Z,11.40
2022-11-24T15:46:10.505Z,11.42
2022-11-24T15:48:37.361Z,11.42
2022-11-24T15:51:08.282Z,11.42
2022-11-24T15:53:45.896Z,11.41
2022-11-24T15:56:25.344Z,11.42
2022-11-24T15:58:53.102Z,11.40
2022-11-24T16:01:22.348Z,11.40
2022-11-24T16:03:49.650Z,11.08
2022-11-24T16:06:25.326Z,11.40
2022-11-24T16:08:53.783Z,11.41
2022-11-24T16:11:21.628Z,11.41
2022-11-24T16:13:52.486Z,11.38
2022-11-24T16:16:20.473Z,11.36
2022-11-24T16:18:47.320Z,11.35
2022-11-24T16:21:14.132Z,11.32
2022-11-24T16:23:40.933Z,11.29
2022-11-24T16:26:07.783Z,11.29
2022-11-24T16:28:34.672Z,11.27
2022-11-24T16:31:01.580Z,11.17
2022-11-24T16:33:31.761Z,11.10
2022-11-24T16:35:58.669Z,11.09
2022-11-24T16:38:25.518Z,11.04
2022-11-24T16:40:54.614Z,11.02
2022-11-24T16:43:21.440Z,10.95
2022-11-24T16:46:21.183Z,10.89
2022-11-24T16:48:51.519Z,10.80
2022-11-24T16:51:21.629Z,10.70
2022-11-24T16:53:58.437Z,10.63
2022-11-24T16:56:26.161Z,10.58
2022-11-24T16:58:53.683Z,10.52
2022-11-24T17:01:21.240Z,10.51
2022-11-24T17:03:48.365Z,10.49
2022-11-24T17:06:16.776Z,10.41
2022-11-24T17:08:45.701Z,10.41
2022-11-24T17:11:19.405Z,10.34
2022-11-24T17:13:47.354Z,10.23
2022-11-24T17:16:17.907Z,10.18
2022-11-24T17:18:45.454Z,10.17
2022-11-24T17:21:15.715Z,10.12
2022-11-24T17:23:43.300Z,10.07
2022-11-24T17:26:16.125Z,10.01
2022-11-24T17:28:43.905Z,9.95
2022-11-24T17:31:25.445Z,9.87
2022-11-24T17:33:57.294Z,9.89
2022-11-24T17:36:25.064Z,9.77
2022-11-24T17:38:51.948Z,9.74
2022-11-24T17:41:20.160Z,9.60
2022-11-24T17:43:55.664Z,9.79
2022-11-24T17:46:24.162Z,9.69
2022-11-24T17:48:51.387Z,9.59
2022-11-24T17:51:20.733Z,9.53
2022-11-24T17:53:49.795Z,9.47
2022-11-24T17:56:20.620Z,9.49
2022-11-24T17:58:47.461Z,9.42
2022-11-24T18:01:14.463Z,9.37
2022-11-24T18:03:41.978Z,9.33
2022-11-24T18:06:11.057Z,9.28
2022-11-24T18:08:41.074Z,9.24
2022-11-24T18:11:14.293Z,9.17
2022-11-24T18:13:56.447Z,9.15
2022-11-24T18:16:27.888Z,9.09
2022-11-24T18:19:07.779Z,8.97
2022-11-24T18:21:41.131Z,9.00
2022-11-24T18:24:09.948Z,8.94
2022-11-24T18:26:37.666Z,8.91
2022-11-24T18:29:04.715Z,8.83
2022-11-24T18:31:32.239Z,8.82
2022-11-24T18:33:59.602Z,8.77
2022-11-24T18:36:30.222Z,8.74
2022-11-24T18:39:05.744Z,8.67
2022-11-24T18:41:32.920Z,8.62
2022-11-24T18:44:02.950Z,8.52
2022-11-24T18:46:29.843Z,8.57
2022-11-24T18:48:56.646Z,8.60
2022-11-24T18:51:23.477Z,8.49
2022-11-24T18:53:59.866Z,8.41
2022-11-24T18:56:27.084Z,8.32
2022-11-24T18:58:56.256Z,8.35
2022-11-24T19:01:28.594Z,8.30
2022-11-24T19:03:58.450Z,8.24
2022-11-24T19:06:32.646Z,8.23
2022-11-24T19:09:04.771Z,8.17
2022-11-24T19:11:35.521Z,8.13
2022-11-24T19:14:04.694Z,8.01
2022-11-24T19:16:31.627Z,8.11
2022-11-24T19:18:59.969Z,8.09
2022-11-24T19:21:27.759Z,7.98
2022-11-24T19:23:57.484Z,7.90
2022-11-24T19:26:26.677Z,7.92
2022-11-24T19:28:53.574Z,7.92
2022-11-24T19:31:20.508Z,7.96
2022-11-24T19:33:47.599Z,7.97
2022-11-24T19:36:18.282Z,7.84
2022-11-24T19:38:53.928Z,7.77
2022-11-24T19:41:24.549Z,7.77
2022-11-24T19:43:53.439Z,7.72
2022-11-24T19:46:22.195Z,7.61
2022-11-24T19:48:54.037Z,7.61
2022-11-24T19:51:24.128Z,7.59
2022-11-24T19:53:51.726Z,7.62
2022-11-24T19:56:21.188Z,7.61
2022-11-24T19:58:49.420Z,7.57
2022-11-24T20:01:24.688Z,7.66
2022-11-24T20:03:58.925Z,7.50
2022-11-24T20:06:32.211Z,7.48
2022-11-24T20:09:00.492Z,7.41
2022-11-24T20:11:28.378Z,7.36
2022-11-24T20:13:55.663Z,7.37
2022-11-24T20:16:27.945Z,7.29
2022-11-24T20:18:57.400Z,7.29
2022-11-24T20:21:33.602Z,7.23
2022-11-24T20:24:10.097Z,7.20
2022-11-24T20:26:41.641Z,7.26
2022-11-24T20:29:11.451Z,7.22
2022-11-24T20:31:42.615Z,7.21
2022-11-24T20:34:09.930Z,7.17
2022-11-24T20:36:40.135Z,7.10
2022-11-24T20:39:12.217Z,7.09
2022-11-24T20:41:40.119Z,7.16
2022-11-24T20:44:11.247Z,7.08
2022-11-24T20:46:39.730Z,7.08
2022-11-24T20:49:10.143Z,7.09
2022-11-24T20:51:41.802Z,7.02
2022-11-24T20:54:09.589Z,7.06
2022-11-24T20:56:40.797Z,6.97
2022-11-24T20:59:10.395Z,6.91
2022-11-24T21:01:40.818Z,6.99
2022-11-24T21:04:10.898Z,6.86
2022-11-24T21:06:38.433Z,6.81
2022-11-24T21:09:07.829Z,6.77
2022-11-24T21:11:35.588Z,6.76
2022-11-24T21:14:02.632Z,6.75
2022-11-24T21:16:31.555Z,6.69
2022-11-24T21:19:11.746Z,6.69
2022-11-24T21:21:40.945Z,6.65
2022-11-24T21:24:15.280Z,6.63
2022-11-24T21:26:44.131Z,6.64
2022-11-24T21:29:13.826Z,6.62
2022-11-24T21:31:41.344Z,6.61
2022-11-24T21:34:09.123Z,6.58
2022-11-24T21:36:39.382Z,6.53
2022-11-24T21:39:06.263Z,6.49
2022-11-24T21:41:33.968Z,6.59
2022-11-24T21:44:00.976Z,6.53
2022-11-24T21:46:38.960Z,6.57
2022-11-24T21:49:09.805Z,6.45
2022-11-24T21:51:37.245Z,6.56
2022-11-24T21:54:05.752Z,6.47
2022-11-24T21:56:32.676Z,6.46
2022-11-24T21:58:59.532Z,6.46
2022-11-24T22:01:28.279Z,6.34
2022-11-24T22:03:56.030Z,6.33
2022-11-24T22:06:23.036Z,6.33
2022-11-24T22:08:49.930Z,6.43
2022-11-24T22:11:22.820Z,6.38
2022-11-24T22:13:50.716Z,6.21
2022-11-24T22:16:20.843Z,6.30
2022-11-24T22:18:48.350Z,6.20
2022-11-24T22:21:18.307Z,6.19
2022-11-24T22:23:45.365Z,6.14
2022-11-24T22:26:17.110Z,6.13
2022-11-24T22:28:45.217Z,6.10
2022-11-24T22:31:19.134Z,6.09
2022-11-24T22:33:46.362Z,6.09
2022-11-24T22:36:15.403Z,5.98
2022-11-24T22:38:42.684Z,5.99
2022-11-24T22:41:16.157Z,5.99
2022-11-24T22:43:44.905Z,6.04
2022-11-24T22:46:17.991Z,5.95
2022-11-24T22:48:47.213Z,5.93
2022-11-24T22:51:23.928Z,5.87
2022-11-24T22:53:57.827Z,5.85
2022-11-24T22:56:25.542Z,5.88
2022-11-24T22:58:52.454Z,5.90
2022-11-24T23:01:22.318Z,5.80
2022-11-24T23:03:50.343Z,5.80
2022-11-24T23:06:29.930Z,5.70
2022-11-24T23:08:58.418Z,5.46
2022-11-24T23:11:34.961Z,5.63
2022-11-24T23:14:04.714Z,5.69
2022-11-24T23:16:31.581Z,5.61
2022-11-24T23:18:58.694Z,5.64
2022-11-24T23:21:29.405Z,5.59
2022-11-24T23:23:56.608Z,5.64
2022-11-24T23:26:36.052Z,5.62
2022-11-24T23:29:04.643Z,5.53
2022-11-24T23:31:32.685Z,5.71
2022-11-24T23:34:02.348Z,5.56
2022-11-24T23:36:30.148Z,5.54
2022-11-24T23:39:05.610Z,5.55
2022-11-24T23:41:32.771Z,5.50
2022-11-24T23:44:00.102Z,5.47
2022-11-24T23:46:28.164Z,5.40
2022-11-24T23:48:56.205Z,5.40
2022-11-24T23:51:26.716Z,5.34
2022-11-24T23:53:55.016Z,5.35
2022-11-24T23:56:25.013Z,5.43
2022-11-24T23:58:52.297Z,5.40
